sensor_id;sensor_type;location;lat;lon;timestamp;P1;durP1;ratioP1;P2;durP2;ratioP2
12308;SDS011;6217;48.150;17.142;2024-02-26T00:01:23;32.03;;;20.92;;
12308;SDS011;6217;48.150;17.142;2024-02-26T00:05:29;33.08;;;22.63;;
12308;SDS011;6217;48.150;17.142;2024-02-26T00:09:37;41.42;;;25.95;;
12308;SDS011;6217;48.150;17.142;2024-02-26T00:13:43;46.05;;;30.55;;
12308;SDS011;6217;48.150;17.142;2024-02-26T00:17:49;45.85;;;31.38;;
12308;SDS011;6217;48.150;17.142;2024-02-26T00:21:55;39.70;;;26.60;;
12308;SDS011;6217;48.150;17.142;2024-02-26T00:26:01;37.58;;;25.92;;
12308;SDS011;6217;48.150;17.142;2024-02-26T00:30:07;47.53;;;24.77;;
12308;SDS011;6217;48.150;17.142;2024-02-26T00:34:13;41.85;;;25.10;;
12308;SDS011;6217;48.150;17.142;2024-02-26T00:38:19;39.15;;;23.58;;
12308;SDS011;6217;48.150;17.142;2024-02-26T00:42:25;36.58;;;21.00;;
12308;SDS011;6217;48.150;17.142;2024-02-26T00:46:31;33.17;;;23.52;;
12308;SDS011;6217;48.150;17.142;2024-02-26T00:50:37;35.33;;;21.63;;
12308;SDS011;6217;48.150;17.142;2024-02-26T00:54:43;34.10;;;21.52;;
12308;SDS011;6217;48.150;17.142;2024-02-26T00:58:49;46.55;;;30.52;;
12308;SDS011;6217;48.150;17.142;2024-02-26T01:02:55;32.60;;;21.35;;
12308;SDS011;6217;48.150;17.142;2024-02-26T01:07:02;38.83;;;25.23;;
12308;SDS011;6217;48.150;17.142;2024-02-26T01:11:08;36.20;;;22.73;;
12308;SDS011;6217;48.150;17.142;2024-02-26T01:15:14;29.35;;;19.85;;
12308;SDS011;6217;48.150;17.142;2024-02-26T01:19:20;35.90;;;21.83;;
12308;SDS011;6217;48.150;17.142;2024-02-26T01:23:26;31.27;;;19.60;;
12308;SDS011;6217;48.150;17.142;2024-02-26T01:27:32;27.38;;;17.95;;
12308;SDS011;6217;48.150;17.142;2024-02-26T01:31:38;28.75;;;18.50;;
12308;SDS011;6217;48.150;17.142;2024-02-26T01:35:44;26.20;;;15.85;;
12308;SDS011;6217;48.150;17.142;2024-02-26T01:39:51;26.65;;;15.88;;
12308;SDS011;6217;48.150;17.142;2024-02-26T01:43:57;29.70;;;15.60;;
12308;SDS011;6217;48.150;17.142;2024-02-26T01:48:03;29.50;;;15.00;;
12308;SDS011;6217;48.150;17.142;2024-02-26T01:52:10;32.10;;;17.65;;
12308;SDS011;6217;48.150;17.142;2024-02-26T01:56:16;22.70;;;15.52;;
12308;SDS011;6217;48.150;17.142;2024-02-26T02:00:24;26.90;;;14.18;;
12308;SDS011;6217;48.150;17.142;2024-02-26T02:04:31;23.85;;;14.68;;
12308;SDS011;6217;48.150;17.142;2024-02-26T02:08:37;25.33;;;13.88;;
12308;SDS011;6217;48.150;17.142;2024-02-26T02:12:44;23.02;;;13.55;;
12308;SDS011;6217;48.150;17.142;2024-02-26T02:16:50;21.08;;;12.95;;
12308;SDS011;6217;48.150;17.142;2024-02-26T02:20:56;20.73;;;13.75;;
12308;SDS011;6217;48.150;17.142;2024-02-26T02:25:04;24.40;;;12.98;;
12308;SDS011;6217;48.150;17.142;2024-02-26T02:29:10;25.55;;;13.32;;
12308;SDS011;6217;48.150;17.142;2024-02-26T02:33:18;24.05;;;12.35;;
12308;SDS011;6217;48.150;17.142;2024-02-26T02:37:24;24.88;;;14.35;;
12308;SDS011;6217;48.150;17.142;2024-02-26T02:41:30;22.52;;;14.00;;
12308;SDS011;6217;48.150;17.142;2024-02-26T02:45:36;29.10;;;13.75;;
12308;SDS011;6217;48.150;17.142;2024-02-26T02:49:42;23.08;;;11.93;;
12308;SDS011;6217;48.150;17.142;2024-02-26T02:53:48;21.02;;;10.70;;
12308;SDS011;6217;48.150;17.142;2024-02-26T02:57:54;20.15;;;12.48;;
12308;SDS011;6217;48.150;17.142;2024-02-26T03:02:00;19.42;;;12.02;;
12308;SDS011;6217;48.150;17.142;2024-02-26T03:06:05;22.40;;;13.45;;
12308;SDS011;6217;48.150;17.142;2024-02-26T03:10:11;16.05;;;10.27;;
12308;SDS011;6217;48.150;17.142;2024-02-26T03:14:19;17.83;;;11.05;;
12308;SDS011;6217;48.150;17.142;2024-02-26T03:18:24;16.10;;;9.98;;
12308;SDS011;6217;48.150;17.142;2024-02-26T03:22:30;18.42;;;10.15;;
12308;SDS011;6217;48.150;17.142;2024-02-26T03:26:36;16.55;;;10.73;;
12308;SDS011;6217;48.150;17.142;2024-02-26T03:30:43;20.98;;;11.77;;
12308;SDS011;6217;48.150;17.142;2024-02-26T03:34:49;23.25;;;12.35;;
12308;SDS011;6217;48.150;17.142;2024-02-26T03:38:55;19.55;;;11.90;;
12308;SDS011;6217;48.150;17.142;2024-02-26T03:43:01;20.85;;;12.48;;
12308;SDS011;6217;48.150;17.142;2024-02-26T03:47:07;19.17;;;11.10;;
12308;SDS011;6217;48.150;17.142;2024-02-26T03:51:15;22.15;;;12.80;;
12308;SDS011;6217;48.150;17.142;2024-02-26T03:55:22;20.75;;;11.73;;
12308;SDS011;6217;48.150;17.142;2024-02-26T03:59:30;21.38;;;11.35;;
12308;SDS011;6217;48.150;17.142;2024-02-26T04:03:36;20.75;;;11.32;;
12308;SDS011;6217;48.150;17.142;2024-02-26T04:07:41;23.42;;;12.30;;
12308;SDS011;6217;48.150;17.142;2024-02-26T04:11:47;24.83;;;13.75;;
12308;SDS011;6217;48.150;17.142;2024-02-26T04:15:53;23.30;;;13.43;;
12308;SDS011;6217;48.150;17.142;2024-02-26T04:19:59;25.65;;;13.75;;
12308;SDS011;6217;48.150;17.142;2024-02-26T04:24:05;27.25;;;14.93;;
12308;SDS011;6217;48.150;17.142;2024-02-26T04:28:11;29.10;;;15.38;;
12308;SDS011;6217;48.150;17.142;2024-02-26T04:32:17;30.70;;;16.67;;
12308;SDS011;6217;48.150;17.142;2024-02-26T04:36:23;28.80;;;17.75;;
12308;SDS011;6217;48.150;17.142;2024-02-26T04:40:31;32.83;;;17.50;;
12308;SDS011;6217;48.150;17.142;2024-02-26T04:44:37;34.47;;;18.58;;
12308;SDS011;6217;48.150;17.142;2024-02-26T04:48:42;38.08;;;20.08;;
12308;SDS011;6217;48.150;17.142;2024-02-26T04:52:50;40.15;;;21.33;;
12308;SDS011;6217;48.150;17.142;2024-02-26T04:56:56;40.38;;;19.60;;
12308;SDS011;6217;48.150;17.142;2024-02-26T05:01:02;39.55;;;21.73;;
12308;SDS011;6217;48.150;17.142;2024-02-26T05:05:08;48.38;;;21.08;;
12308;SDS011;6217;48.150;17.142;2024-02-26T05:09:14;35.72;;;20.38;;
12308;SDS011;6217;48.150;17.142;2024-02-26T05:13:20;38.97;;;21.23;;
12308;SDS011;6217;48.150;17.142;2024-02-26T05:17:26;45.15;;;21.45;;
12308;SDS011;6217;48.150;17.142;2024-02-26T05:21:32;43.92;;;21.80;;
12308;SDS011;6217;48.150;17.142;2024-02-26T05:25:39;43.38;;;21.15;;
12308;SDS011;6217;48.150;17.142;2024-02-26T05:29:45;42.42;;;21.95;;
12308;SDS011;6217;48.150;17.142;2024-02-26T05:33:51;44.03;;;21.40;;
12308;SDS011;6217;48.150;17.142;2024-02-26T05:37:57;40.67;;;20.85;;
12308;SDS011;6217;48.150;17.142;2024-02-26T05:42:03;51.38;;;24.55;;
12308;SDS011;6217;48.150;17.142;2024-02-26T05:46:09;48.53;;;24.00;;
12308;SDS011;6217;48.150;17.142;2024-02-26T05:50:15;49.95;;;22.95;;
12308;SDS011;6217;48.150;17.142;2024-02-26T05:54:22;57.35;;;25.77;;
12308;SDS011;6217;48.150;17.142;2024-02-26T05:58:28;47.92;;;23.92;;
12308;SDS011;6217;48.150;17.142;2024-02-26T06:02:34;49.00;;;23.77;;
12308;SDS011;6217;48.150;17.142;2024-02-26T06:06:40;47.90;;;25.70;;
12308;SDS011;6217;48.150;17.142;2024-02-26T06:10:46;51.15;;;27.63;;
12308;SDS011;6217;48.150;17.142;2024-02-26T06:14:52;55.55;;;24.83;;
12308;SDS011;6217;48.150;17.142;2024-02-26T06:18:58;57.83;;;24.38;;
12308;SDS011;6217;48.150;17.142;2024-02-26T06:23:05;44.30;;;24.75;;
12308;SDS011;6217;48.150;17.142;2024-02-26T06:27:12;46.63;;;24.02;;
12308;SDS011;6217;48.150;17.142;2024-02-26T06:31:18;48.65;;;24.58;;
12308;SDS011;6217;48.150;17.142;2024-02-26T06:35:24;48.60;;;24.27;;
12308;SDS011;6217;48.150;17.142;2024-02-26T06:39:30;48.58;;;22.50;;
12308;SDS011;6217;48.150;17.142;2024-02-26T06:43:36;47.25;;;24.45;;
12308;SDS011;6217;48.150;17.142;2024-02-26T06:47:41;43.38;;;24.50;;
12308;SDS011;6217;48.150;17.142;2024-02-26T06:51:47;32.72;;;21.05;;
12308;SDS011;6217;48.150;17.142;2024-02-26T06:55:53;32.33;;;20.65;;
12308;SDS011;6217;48.150;17.142;2024-02-26T06:59:59;36.63;;;21.77;;
12308;SDS011;6217;48.150;17.142;2024-02-26T07:04:05;24.38;;;16.50;;
12308;SDS011;6217;48.150;17.142;2024-02-26T07:08:11;26.55;;;17.65;;
12308;SDS011;6217;48.150;17.142;2024-02-26T07:12:17;25.52;;;17.80;;
12308;SDS011;6217;48.150;17.142;2024-02-26T07:16:24;23.52;;;16.55;;
12308;SDS011;6217;48.150;17.142;2024-02-26T07:20:31;24.60;;;17.67;;
12308;SDS011;6217;48.150;17.142;2024-02-26T07:24:37;22.63;;;16.80;;
12308;SDS011;6217;48.150;17.142;2024-02-26T07:28:43;21.73;;;14.30;;
12308;SDS011;6217;48.150;17.142;2024-02-26T07:32:49;23.08;;;17.15;;
12308;SDS011;6217;48.150;17.142;2024-02-26T07:36:56;21.25;;;15.13;;
12308;SDS011;6217;48.150;17.142;2024-02-26T07:41:02;14.43;;;12.05;;
12308;SDS011;6217;48.150;17.142;2024-02-26T07:45:08;16.92;;;11.85;;
12308;SDS011;6217;48.150;17.142;2024-02-26T07:49:15;17.60;;;12.50;;
12308;SDS011;6217;48.150;17.142;2024-02-26T07:53:21;15.43;;;11.55;;
12308;SDS011;6217;48.150;17.142;2024-02-26T07:57:26;13.85;;;11.05;;
12308;SDS011;6217;48.150;17.142;2024-02-26T08:01:32;11.70;;;10.18;;
12308;SDS011;6217;48.150;17.142;2024-02-26T08:05:39;14.05;;;10.48;;
12308;SDS011;6217;48.150;17.142;2024-02-26T08:09:47;10.93;;;7.30;;
12308;SDS011;6217;48.150;17.142;2024-02-26T08:13:53;11.98;;;6.70;;
12308;SDS011;6217;48.150;17.142;2024-02-26T08:17:59;11.38;;;8.32;;
12308;SDS011;6217;48.150;17.142;2024-02-26T08:22:08;9.90;;;5.97;;
12308;SDS011;6217;48.150;17.142;2024-02-26T08:26:21;7.22;;;5.45;;
12308;SDS011;6217;48.150;17.142;2024-02-26T08:30:27;8.60;;;6.15;;
12308;SDS011;6217;48.150;17.142;2024-02-26T08:34:33;9.68;;;5.03;;
12308;SDS011;6217;48.150;17.142;2024-02-26T08:38:39;7.15;;;5.47;;
12308;SDS011;6217;48.150;17.142;2024-02-26T08:42:45;9.18;;;5.07;;
12308;SDS011;6217;48.150;17.142;2024-02-26T08:46:51;8.68;;;6.28;;
12308;SDS011;6217;48.150;17.142;2024-02-26T08:50:57;7.55;;;5.32;;
12308;SDS011;6217;48.150;17.142;2024-02-26T08:55:03;13.80;;;6.05;;
12308;SDS011;6217;48.150;17.142;2024-02-26T08:59:11;7.53;;;3.97;;
12308;SDS011;6217;48.150;17.142;2024-02-26T09:03:17;6.45;;;5.80;;
12308;SDS011;6217;48.150;17.142;2024-02-26T09:07:23;7.60;;;4.82;;
12308;SDS011;6217;48.150;17.142;2024-02-26T09:11:29;4.13;;;3.25;;
12308;SDS011;6217;48.150;17.142;2024-02-26T09:15:35;4.75;;;3.72;;
12308;SDS011;6217;48.150;17.142;2024-02-26T09:19:41;7.25;;;2.80;;
12308;SDS011;6217;48.150;17.142;2024-02-26T09:23:48;4.20;;;3.45;;
12308;SDS011;6217;48.150;17.142;2024-02-26T09:27:55;5.50;;;4.22;;
12308;SDS011;6217;48.150;17.142;2024-02-26T09:32:01;3.83;;;2.40;;
12308;SDS011;6217;48.150;17.142;2024-02-26T09:36:07;2.90;;;1.40;;
12308;SDS011;6217;48.150;17.142;2024-02-26T09:40:16;2.55;;;1.80;;
12308;SDS011;6217;48.150;17.142;2024-02-26T09:44:22;3.95;;;2.38;;
12308;SDS011;6217;48.150;17.142;2024-02-26T09:48:29;3.47;;;1.52;;
12308;SDS011;6217;48.150;17.142;2024-02-26T09:52:37;4.80;;;1.80;;
12308;SDS011;6217;48.150;17.142;2024-02-26T09:56:44;6.22;;;1.92;;
12308;SDS011;6217;48.150;17.142;2024-02-26T10:00:53;2.58;;;1.98;;
12308;SDS011;6217;48.150;17.142;2024-02-26T10:05:03;5.63;;;1.60;;
12308;SDS011;6217;48.150;17.142;2024-02-26T10:09:12;9.82;;;1.40;;
12308;SDS011;6217;48.150;17.142;2024-02-26T10:13:21;2.55;;;1.10;;
12308;SDS011;6217;48.150;17.142;2024-02-26T10:17:28;2.45;;;1.17;;
12308;SDS011;6217;48.150;17.142;2024-02-26T10:21:34;1.08;;;0.90;;
12308;SDS011;6217;48.150;17.142;2024-02-26T10:25:52;1.35;;;1.20;;
12308;SDS011;6217;48.150;17.142;2024-02-26T10:30:19;2.03;;;1.30;;
12308;SDS011;6217;48.150;17.142;2024-02-26T10:34:26;3.08;;;0.90;;
12308;SDS011;6217;48.150;17.142;2024-02-26T10:38:37;1.90;;;1.10;;
12308;SDS011;6217;48.150;17.142;2024-02-26T10:42:43;2.05;;;0.95;;
12308;SDS011;6217;48.150;17.142;2024-02-26T10:46:51;2.20;;;0.90;;
12308;SDS011;6217;48.150;17.142;2024-02-26T10:50:57;1.98;;;1.02;;
12308;SDS011;6217;48.150;17.142;2024-02-26T10:55:04;1.80;;;1.15;;
12308;SDS011;6217;48.150;17.142;2024-02-26T10:59:14;0.90;;;0.90;;
12308;SDS011;6217;48.150;17.142;2024-02-26T11:03:25;3.97;;;0.77;;
12308;SDS011;6217;48.150;17.142;2024-02-26T11:07:34;2.03;;;0.90;;
12308;SDS011;6217;48.150;17.142;2024-02-26T11:11:41;1.58;;;1.48;;
12308;SDS011;6217;48.150;17.142;2024-02-26T11:15:48;1.13;;;0.90;;
12308;SDS011;6217;48.150;17.142;2024-02-26T11:19:55;1.60;;;1.48;;
12308;SDS011;6217;48.150;17.142;2024-02-26T11:24:03;1.17;;;0.93;;
12308;SDS011;6217;48.150;17.142;2024-02-26T11:28:13;2.13;;;0.93;;
12308;SDS011;6217;48.150;17.142;2024-02-26T11:32:23;1.83;;;1.02;;
12308;SDS011;6217;48.150;17.142;2024-02-26T11:36:29;2.05;;;1.10;;
12308;SDS011;6217;48.150;17.142;2024-02-26T11:40:38;1.33;;;1.00;;
12308;SDS011;6217;48.150;17.142;2024-02-26T11:44:46;6.45;;;1.20;;
12308;SDS011;6217;48.150;17.142;2024-02-26T11:49:01;7.07;;;0.88;;
12308;SDS011;6217;48.150;17.142;2024-02-26T11:53:30;2.05;;;0.90;;
12308;SDS011;6217;48.150;17.142;2024-02-26T12:01:44;4.47;;;0.90;;
12308;SDS011;6217;48.150;17.142;2024-02-26T12:05:52;2.95;;;1.10;;
12308;SDS011;6217;48.150;17.142;2024-02-26T12:14:40;1.40;;;0.97;;
12308;SDS011;6217;48.150;17.142;2024-02-26T12:18:57;1.40;;;1.30;;
12308;SDS011;6217;48.150;17.142;2024-02-26T12:23:04;1.73;;;0.90;;
12308;SDS011;6217;48.150;17.142;2024-02-26T12:27:10;1.50;;;1.15;;
12308;SDS011;6217;48.150;17.142;2024-02-26T12:31:17;1.95;;;0.90;;
12308;SDS011;6217;48.150;17.142;2024-02-26T12:35:23;3.65;;;1.35;;
12308;SDS011;6217;48.150;17.142;2024-02-26T12:39:30;1.25;;;1.10;;
12308;SDS011;6217;48.150;17.142;2024-02-26T12:43:36;1.33;;;0.90;;
12308;SDS011;6217;48.150;17.142;2024-02-26T12:47:42;1.48;;;1.10;;
12308;SDS011;6217;48.150;17.142;2024-02-26T12:51:49;1.85;;;1.05;;
12308;SDS011;6217;48.150;17.142;2024-02-26T12:55:56;1.17;;;0.90;;
12308;SDS011;6217;48.150;17.142;2024-02-26T13:00:02;1.15;;;1.05;;
12308;SDS011;6217;48.150;17.142;2024-02-26T13:04:11;5.20;;;2.13;;
12308;SDS011;6217;48.150;17.142;2024-02-26T13:08:17;2.22;;;1.05;;
12308;SDS011;6217;48.150;17.142;2024-02-26T13:12:25;2.00;;;1.00;;
12308;SDS011;6217;48.150;17.142;2024-02-26T13:16:30;1.15;;;0.82;;
12308;SDS011;6217;48.150;17.142;2024-02-26T13:20:37;2.10;;;1.77;;
12308;SDS011;6217;48.150;17.142;2024-02-26T13:24:45;1.90;;;0.98;;
12308;SDS011;6217;48.150;17.142;2024-02-26T13:29:04;2.10;;;0.93;;
12308;SDS011;6217;48.150;17.142;2024-02-26T13:33:11;4.15;;;0.77;;
12308;SDS011;6217;48.150;17.142;2024-02-26T13:37:18;2.72;;;0.73;;
12308;SDS011;6217;48.150;17.142;2024-02-26T13:41:24;1.83;;;0.98;;
12308;SDS011;6217;48.150;17.142;2024-02-26T13:45:30;1.58;;;0.80;;
12308;SDS011;6217;48.150;17.142;2024-02-26T13:49:43;2.45;;;0.75;;
12308;SDS011;6217;48.150;17.142;2024-02-26T13:53:49;2.20;;;0.70;;
12308;SDS011;6217;48.150;17.142;2024-02-26T13:57:56;3.42;;;0.77;;
12308;SDS011;6217;48.150;17.142;2024-02-26T14:02:03;1.23;;;0.75;;
12308;SDS011;6217;48.150;17.142;2024-02-26T14:06:09;1.33;;;0.95;;
12308;SDS011;6217;48.150;17.142;2024-02-26T14:10:15;3.55;;;1.10;;
12308;SDS011;6217;48.150;17.142;2024-02-26T14:14:21;5.30;;;1.45;;
12308;SDS011;6217;48.150;17.142;2024-02-26T14:18:27;0.68;;;0.68;;
12308;SDS011;6217;48.150;17.142;2024-02-26T14:22:33;2.90;;;0.70;;
12308;SDS011;6217;48.150;17.142;2024-02-26T14:26:40;0.63;;;0.60;;
12308;SDS011;6217;48.150;17.142;2024-02-26T14:30:47;0.77;;;0.70;;
12308;SDS011;6217;48.150;17.142;2024-02-26T14:34:53;0.85;;;0.85;;
12308;SDS011;6217;48.150;17.142;2024-02-26T14:39:01;0.95;;;0.95;;
12308;SDS011;6217;48.150;17.142;2024-02-26T14:43:07;2.63;;;1.58;;
12308;SDS011;6217;48.150;17.142;2024-02-26T14:47:15;3.25;;;1.42;;
12308;SDS011;6217;48.150;17.142;2024-02-26T14:51:23;2.95;;;0.80;;
12308;SDS011;6217;48.150;17.142;2024-02-26T14:55:30;2.50;;;0.70;;
12308;SDS011;6217;48.150;17.142;2024-02-26T14:59:35;0.80;;;0.70;;
12308;SDS011;6217;48.150;17.142;2024-02-26T15:03:41;1.65;;;0.73;;
12308;SDS011;6217;48.150;17.142;2024-02-26T15:07:47;0.98;;;0.50;;
12308;SDS011;6217;48.150;17.142;2024-02-26T15:11:54;0.90;;;0.70;;
12308;SDS011;6217;48.150;17.142;2024-02-26T15:16:02;1.85;;;0.80;;
12308;SDS011;6217;48.150;17.142;2024-02-26T15:20:09;0.93;;;0.68;;
12308;SDS011;6217;48.150;17.142;2024-02-26T15:24:16;0.70;;;0.70;;
12308;SDS011;6217;48.150;17.142;2024-02-26T15:28:22;1.52;;;0.95;;
12308;SDS011;6217;48.150;17.142;2024-02-26T15:32:30;1.17;;;0.60;;
12308;SDS011;6217;48.150;17.142;2024-02-26T15:36:36;0.88;;;0.77;;
12308;SDS011;6217;48.150;17.142;2024-02-26T15:40:42;3.45;;;0.80;;
12308;SDS011;6217;48.150;17.142;2024-02-26T15:44:49;0.80;;;0.80;;
12308;SDS011;6217;48.150;17.142;2024-02-26T15:48:55;0.80;;;0.63;;
12308;SDS011;6217;48.150;17.142;2024-02-26T15:53:01;1.02;;;0.75;;
12308;SDS011;6217;48.150;17.142;2024-02-26T15:57:07;3.28;;;0.63;;
12308;SDS011;6217;48.150;17.142;2024-02-26T16:01:16;0.70;;;0.70;;
12308;SDS011;6217;48.150;17.142;2024-02-26T16:05:22;1.15;;;0.65;;
12308;SDS011;6217;48.150;17.142;2024-02-26T16:09:28;0.50;;;0.50;;
12308;SDS011;6217;48.150;17.142;2024-02-26T16:13:35;1.60;;;0.90;;
12308;SDS011;6217;48.150;17.142;2024-02-26T16:17:42;2.28;;;1.20;;
12308;SDS011;6217;48.150;17.142;2024-02-26T16:22:11;4.35;;;0.77;;
12308;SDS011;6217;48.150;17.142;2024-02-26T16:26:19;0.90;;;0.77;;
12308;SDS011;6217;48.150;17.142;2024-02-26T16:30:25;1.55;;;0.98;;
12308;SDS011;6217;48.150;17.142;2024-02-26T16:34:31;0.80;;;0.80;;
12308;SDS011;6217;48.150;17.142;2024-02-26T16:38:37;3.75;;;0.80;;
12308;SDS011;6217;48.150;17.142;2024-02-26T16:42:43;3.85;;;0.80;;
12308;SDS011;6217;48.150;17.142;2024-02-26T16:46:49;0.70;;;0.70;;
12308;SDS011;6217;48.150;17.142;2024-02-26T16:50:55;1.15;;;0.80;;
12308;SDS011;6217;48.150;17.142;2024-02-26T16:55:01;1.10;;;1.00;;
12308;SDS011;6217;48.150;17.142;2024-02-26T16:59:07;2.70;;;0.82;;
12308;SDS011;6217;48.150;17.142;2024-02-26T17:03:13;1.23;;;0.80;;
12308;SDS011;6217;48.150;17.142;2024-02-26T17:07:20;6.70;;;1.17;;
12308;SDS011;6217;48.150;17.142;2024-02-26T17:11:26;1.20;;;1.02;;
12308;SDS011;6217;48.150;17.142;2024-02-26T17:15:35;2.70;;;1.00;;
12308;SDS011;6217;48.150;17.142;2024-02-26T17:19:41;1.63;;;0.90;;
12308;SDS011;6217;48.150;17.142;2024-02-26T17:23:47;2.03;;;1.02;;
12308;SDS011;6217;48.150;17.142;2024-02-26T17:27:53;1.98;;;1.20;;
12308;SDS011;6217;48.150;17.142;2024-02-26T17:31:59;6.78;;;2.60;;
12308;SDS011;6217;48.150;17.142;2024-02-26T17:36:06;2.25;;;1.40;;
12308;SDS011;6217;48.150;17.142;2024-02-26T17:40:15;2.42;;;1.75;;
12308;SDS011;6217;48.150;17.142;2024-02-26T17:44:21;1.70;;;1.40;;
12308;SDS011;6217;48.150;17.142;2024-02-26T17:48:29;1.83;;;1.55;;
12308;SDS011;6217;48.150;17.142;2024-02-26T17:52:35;3.95;;;1.30;;
12308;SDS011;6217;48.150;17.142;2024-02-26T17:56:42;2.13;;;1.08;;
12308;SDS011;6217;48.150;17.142;2024-02-26T18:00:48;3.85;;;1.88;;
12308;SDS011;6217;48.150;17.142;2024-02-26T18:04:54;1.88;;;1.52;;
12308;SDS011;6217;48.150;17.142;2024-02-26T18:09:00;4.47;;;2.53;;
12308;SDS011;6217;48.150;17.142;2024-02-26T18:13:06;3.25;;;1.77;;
12308;SDS011;6217;48.150;17.142;2024-02-26T18:17:12;7.78;;;1.88;;
12308;SDS011;6217;48.150;17.142;2024-02-26T18:21:18;5.68;;;3.10;;
12308;SDS011;6217;48.150;17.142;2024-02-26T18:25:27;10.35;;;2.00;;
12308;SDS011;6217;48.150;17.142;2024-02-26T18:29:33;7.63;;;2.47;;
12308;SDS011;6217;48.150;17.142;2024-02-26T18:33:39;7.57;;;2.60;;
12308;SDS011;6217;48.150;17.142;2024-02-26T18:37:45;3.00;;;1.90;;
12308;SDS011;6217;48.150;17.142;2024-02-26T18:41:50;5.38;;;2.55;;
12308;SDS011;6217;48.150;17.142;2024-02-26T18:45:57;3.22;;;1.67;;
12308;SDS011;6217;48.150;17.142;2024-02-26T18:50:04;3.33;;;2.05;;
12308;SDS011;6217;48.150;17.142;2024-02-26T18:54:11;2.72;;;1.40;;
12308;SDS011;6217;48.150;17.142;2024-02-26T18:58:16;3.05;;;1.70;;
12308;SDS011;6217;48.150;17.142;2024-02-26T19:02:22;4.05;;;1.83;;
12308;SDS011;6217;48.150;17.142;2024-02-26T19:06:29;2.85;;;1.60;;
12308;SDS011;6217;48.150;17.142;2024-02-26T19:10:37;2.55;;;1.67;;
12308;SDS011;6217;48.150;17.142;2024-02-26T19:14:43;2.88;;;1.67;;
12308;SDS011;6217;48.150;17.142;2024-02-26T19:18:51;7.05;;;3.08;;
12308;SDS011;6217;48.150;17.142;2024-02-26T19:22:58;2.67;;;2.00;;
12308;SDS011;6217;48.150;17.142;2024-02-26T19:27:04;3.97;;;1.80;;
12308;SDS011;6217;48.150;17.142;2024-02-26T19:31:10;3.85;;;1.67;;
12308;SDS011;6217;48.150;17.142;2024-02-26T19:35:18;2.30;;;1.83;;
12308;SDS011;6217;48.150;17.142;2024-02-26T19:39:24;3.05;;;1.73;;
12308;SDS011;6217;48.150;17.142;2024-02-26T19:43:30;5.82;;;1.80;;
12308;SDS011;6217;48.150;17.142;2024-02-26T19:47:36;4.15;;;1.83;;
12308;SDS011;6217;48.150;17.142;2024-02-26T19:51:45;3.55;;;2.10;;
12308;SDS011;6217;48.150;17.142;2024-02-26T19:55:50;2.83;;;2.17;;
12308;SDS011;6217;48.150;17.142;2024-02-26T19:59:57;2.30;;;1.95;;
12308;SDS011;6217;48.150;17.142;2024-02-26T20:04:03;4.05;;;2.17;;
12308;SDS011;6217;48.150;17.142;2024-02-26T20:08:09;5.22;;;1.98;;
12308;SDS011;6217;48.150;17.142;2024-02-26T20:12:15;3.55;;;1.65;;
12308;SDS011;6217;48.150;17.142;2024-02-26T20:16:24;4.20;;;1.73;;
12308;SDS011;6217;48.150;17.142;2024-02-26T20:20:30;3.58;;;1.60;;
12308;SDS011;6217;48.150;17.142;2024-02-26T20:24:36;3.20;;;1.65;;
12308;SDS011;6217;48.150;17.142;2024-02-26T20:28:43;2.72;;;1.50;;
12308;SDS011;6217;48.150;17.142;2024-02-26T20:32:49;3.00;;;1.52;;
12308;SDS011;6217;48.150;17.142;2024-02-26T20:36:55;2.25;;;1.50;;
12308;SDS011;6217;48.150;17.142;2024-02-26T20:41:01;3.25;;;1.70;;
12308;SDS011;6217;48.150;17.142;2024-02-26T20:45:06;6.13;;;2.22;;
12308;SDS011;6217;48.150;17.142;2024-02-26T20:49:14;5.93;;;3.17;;
12308;SDS011;6217;48.150;17.142;2024-02-26T20:53:21;6.20;;;4.03;;
12308;SDS011;6217;48.150;17.142;2024-02-26T20:57:27;5.43;;;4.25;;
12308;SDS011;6217;48.150;17.142;2024-02-26T21:01:33;9.05;;;5.22;;
12308;SDS011;6217;48.150;17.142;2024-02-26T21:05:45;9.80;;;4.25;;
12308;SDS011;6217;48.150;17.142;2024-02-26T21:09:51;8.20;;;4.95;;
12308;SDS011;6217;48.150;17.142;2024-02-26T21:13:59;7.53;;;4.80;;
12308;SDS011;6217;48.150;17.142;2024-02-26T21:18:36;6.30;;;4.32;;
12308;SDS011;6217;48.150;17.142;2024-02-26T21:22:45;7.60;;;3.92;;
12308;SDS011;6217;48.150;17.142;2024-02-26T21:26:51;3.85;;;2.33;;
12308;SDS011;6217;48.150;17.142;2024-02-26T21:30:57;5.60;;;2.30;;
12308;SDS011;6217;48.150;17.142;2024-02-26T21:35:04;3.05;;;2.58;;
12308;SDS011;6217;48.150;17.142;2024-02-26T21:39:11;4.82;;;2.50;;
12308;SDS011;6217;48.150;17.142;2024-02-26T21:43:16;4.80;;;2.53;;
12308;SDS011;6217;48.150;17.142;2024-02-26T21:47:22;3.75;;;2.17;;
12308;SDS011;6217;48.150;17.142;2024-02-26T21:51:28;3.83;;;2.45;;
12308;SDS011;6217;48.150;17.142;2024-02-26T21:55:34;4.68;;;2.50;;
12308;SDS011;6217;48.150;17.142;2024-02-26T21:59:40;2.95;;;2.22;;
12308;SDS011;6217;48.150;17.142;2024-02-26T22:03:46;5.72;;;2.53;;
12308;SDS011;6217;48.150;17.142;2024-02-26T22:07:52;2.97;;;2.20;;
12308;SDS011;6217;48.150;17.142;2024-02-26T22:11:58;5.25;;;2.50;;
12308;SDS011;6217;48.150;17.142;2024-02-26T22:16:04;6.35;;;1.92;;
12308;SDS011;6217;48.150;17.142;2024-02-26T22:20:10;4.72;;;2.03;;
12308;SDS011;6217;48.150;17.142;2024-02-26T22:24:16;5.15;;;2.60;;
12308;SDS011;6217;48.150;17.142;2024-02-26T22:28:23;3.08;;;2.40;;
12308;SDS011;6217;48.150;17.142;2024-02-26T22:32:31;3.05;;;2.10;;
12308;SDS011;6217;48.150;17.142;2024-02-26T22:36:37;4.05;;;2.35;;
12308;SDS011;6217;48.150;17.142;2024-02-26T22:40:43;3.97;;;2.22;;
12308;SDS011;6217;48.150;17.142;2024-02-26T22:44:49;4.32;;;2.30;;
12308;SDS011;6217;48.150;17.142;2024-02-26T22:48:55;5.88;;;2.47;;
12308;SDS011;6217;48.150;17.142;2024-02-26T22:53:01;6.80;;;2.33;;
12308;SDS011;6217;48.150;17.142;2024-02-26T22:57:08;6.10;;;1.98;;
12308;SDS011;6217;48.150;17.142;2024-02-26T23:01:16;4.00;;;2.13;;
12308;SDS011;6217;48.150;17.142;2024-02-26T23:05:22;3.92;;;2.30;;
12308;SDS011;6217;48.150;17.142;2024-02-26T23:09:29;4.00;;;2.03;;
12308;SDS011;6217;48.150;17.142;2024-02-26T23:13:35;3.47;;;2.25;;
12308;SDS011;6217;48.150;17.142;2024-02-26T23:17:41;10.88;;;2.55;;
12308;SDS011;6217;48.150;17.142;2024-02-26T23:21:48;4.85;;;2.05;;
12308;SDS011;6217;48.150;17.142;2024-02-26T23:25:53;3.72;;;3.40;;
12308;SDS011;6217;48.150;17.142;2024-02-26T23:29:59;6.65;;;5.05;;
12308;SDS011;6217;48.150;17.142;2024-02-26T23:34:06;11.50;;;5.10;;
12308;SDS011;6217;48.150;17.142;2024-02-26T23:38:12;6.57;;;4.53;;
12308;SDS011;6217;48.150;17.142;2024-02-26T23:42:18;8.18;;;5.57;;
12308;SDS011;6217;48.150;17.142;2024-02-26T23:46:24;10.10;;;4.63;;
12308;SDS011;6217;48.150;17.142;2024-02-26T23:50:30;10.02;;;5.07;;
12308;SDS011;6217;48.150;17.142;2024-02-26T23:54:37;5.43;;;4.10;;
12308;SDS011;6217;48.150;17.142;2024-02-26T23:58:44;11.32;;;5.05;;
